< < Back
Terminal Aerodrome Forecast


Current Version              Previous Versions:   1  2  3  4  5  6  7  8  9  

Terminal Aerodrome Forecast

442
FTUS42 KGSP 281249 AAA
TAFCLT
TAF AMD
KCLT 281249Z 2813/2912 05006KT P6SM BKN060
     FM281500 05010KT P6SM SCT120
     FM281600 05010KT P6SM FEW150
     FM290100 06006KT P6SM FEW250
     FM290600 04004KT P6SM SCT040=



Latest METAR

291
SAUS70 KWBC 282000 RRJ
MTRCLT
METAR KCLT 281952Z 01005KT 10SM FEW055 FEW250 33/17 A3014 RMK AO2 SLP195
T03280172


USA.gov is the U.S. government's official web portal to all federal, state and local government web resources and services.